createdAt,value
2018-04-15T00:00:27.071Z,992.27
2018-04-15T00:01:27.113Z,992.25
2018-04-15T00:02:27.043Z,992.23
2018-04-15T00:03:27.069Z,992.20
2018-04-15T00:04:27.025Z,992.19
2018-04-15T00:05:26.969Z,992.15
2018-04-15T00:06:27.044Z,992.12
2018-04-15T00:07:26.941Z,992.15
2018-04-15T00:08:26.916Z,992.15
2018-04-15T00:09:26.920Z,992.13
2018-04-15T00:10:26.892Z,992.13
2018-04-15T00:11:26.879Z,992.13
2018-04-15T00:12:26.865Z,992.16
2018-04-15T00:13:26.850Z,992.14
2018-04-15T00:14:26.797Z,992.10
2018-04-15T00:15:26.799Z,992.11
2018-04-15T00:16:26.758Z,992.07
2018-04-15T00:17:26.751Z,992.04
2018-04-15T00:18:26.713Z,992.06
2018-04-15T00:19:26.750Z,992.03
2018-04-15T00:20:26.736Z,992.03
2018-04-15T00:21:26.660Z,992.01
2018-04-15T00:22:26.659Z,991.98
2018-04-15T00:23:26.670Z,991.97
2018-04-15T00:24:26.637Z,991.99
2018-04-15T00:25:26.590Z,991.94
2018-04-15T00:26:26.583Z,991.89
2018-04-15T00:27:26.584Z,991.91
2018-04-15T00:28:26.573Z,991.82
2018-04-15T00:29:26.547Z,991.83
2018-04-15T00:30:26.497Z,991.84
2018-04-15T00:31:26.494Z,991.85
2018-04-15T00:32:26.505Z,991.85
2018-04-15T00:33:26.460Z,991.87
2018-04-15T00:34:26.424Z,991.90
2018-04-15T00:35:26.404Z,991.97
2018-04-15T00:36:26.365Z,991.97
2018-04-15T00:37:26.349Z,991.99
2018-04-15T00:38:26.348Z,991.96
2018-04-15T00:39:26.292Z,991.96
2018-04-15T00:40:26.285Z,991.92
2018-04-15T00:41:26.280Z,991.88
2018-04-15T00:42:26.261Z,991.84
2018-04-15T00:43:26.217Z,991.87
2018-04-15T00:44:26.216Z,991.81
2018-04-15T00:45:26.207Z,991.80
2018-04-15T00:46:26.180Z,991.77
2018-04-15T00:47:26.123Z,991.76
2018-04-15T00:48:26.230Z,991.75
2018-04-15T00:49:26.122Z,991.70
2018-04-15T00:50:26.070Z,991.67
2018-04-15T00:51:26.090Z,991.69
2018-04-15T00:52:26.111Z,991.70
2018-04-15T00:53:26.040Z,991.68
2018-04-15T00:54:25.979Z,991.66
2018-04-15T00:55:25.990Z,991.67
2018-04-15T00:56:25.951Z,991.66
2018-04-15T00:57:25.956Z,991.70
2018-04-15T00:58:25.945Z,991.68
2018-04-15T00:59:25.926Z,991.70
2018-04-15T01:00:25.922Z,991.68
2018-04-15T01:01:25.848Z,991.67
2018-04-15T01:02:25.881Z,991.70
2018-04-15T01:03:25.833Z,991.66
2018-04-15T01:04:25.808Z,991.70
2018-04-15T01:05:25.855Z,991.65
2018-04-15T01:06:25.757Z,991.66
2018-04-15T01:07:25.732Z,991.65
2018-04-15T01:08:25.753Z,991.66
2018-04-15T01:09:25.724Z,991.63
2018-04-15T01:10:25.661Z,991.65
2018-04-15T01:11:25.691Z,991.66
2018-04-15T01:12:25.663Z,991.66
2018-04-15T01:13:25.620Z,991.64
2018-04-15T01:14:25.683Z,991.65
2018-04-15T01:15:25.590Z,991.67
2018-04-15T01:16:25.578Z,991.65
2018-04-15T01:17:25.542Z,991.64
2018-04-15T01:18:25.576Z,991.66
2018-04-15T01:19:25.479Z,991.64
2018-04-15T01:20:25.471Z,991.64
2018-04-15T01:21:25.451Z,991.62
2018-04-15T01:22:25.457Z,991.62
2018-04-15T01:23:25.424Z,991.56
2018-04-15T01:24:25.432Z,991.56
2018-04-15T01:25:25.422Z,991.54
2018-04-15T01:26:25.364Z,991.54
2018-04-15T01:27:25.383Z,991.55
2018-04-15T01:28:25.345Z,991.54
2018-04-15T01:29:25.281Z,991.55
2018-04-15T01:30:25.263Z,991.53
2018-04-15T01:31:25.293Z,991.57
2018-04-15T01:32:25.292Z,991.52
2018-04-15T01:33:25.225Z,991.52
2018-04-15T01:34:25.191Z,991.50
2018-04-15T01:35:25.166Z,991.49
2018-04-15T01:36:25.135Z,991.52
2018-04-15T01:37:25.182Z,991.51
2018-04-15T01:38:25.133Z,991.53
2018-04-15T01:39:25.070Z,991.53
2018-04-15T01:40:25.070Z,991.52
2018-04-15T01:41:25.131Z,991.50
2018-04-15T01:42:25.039Z,991.49
2018-04-15T01:43:25.043Z,991.52
2018-04-15T01:44:24.993Z,991.49
2018-04-15T01:45:24.971Z,991.51
2018-04-15T01:46:25.036Z,991.50
2018-04-15T01:47:24.977Z,991.47
2018-04-15T01:48:24.942Z,991.45
2018-04-15T01:49:24.898Z,991.45
2018-04-15T01:50:24.896Z,991.44
2018-04-15T01:51:24.841Z,991.39
2018-04-15T01:52:24.928Z,991.40
2018-04-15T01:53:24.926Z,991.38
2018-04-15T01:54:24.875Z,991.39
2018-04-15T01:55:24.790Z,991.37
2018-04-15T01:56:24.768Z,991.39
2018-04-15T01:57:24.811Z,991.38
2018-04-15T01:58:24.731Z,991.35
2018-04-15T01:59:24.757Z,991.38
2018-04-15T02:00:24.652Z,991.40
2018-04-15T02:01:24.666Z,991.37
2018-04-15T02:02:24.641Z,991.40
2018-04-15T02:03:24.683Z,991.43
2018-04-15T02:04:24.603Z,991.45
2018-04-15T02:05:24.553Z,991.46
2018-04-15T02:06:24.529Z,991.48
2018-04-15T02:07:24.523Z,991.48
2018-04-15T02:08:24.530Z,991.48
2018-04-15T02:09:24.519Z,991.49
2018-04-15T02:10:24.474Z,991.47
2018-04-15T02:11:24.441Z,991.49
2018-04-15T02:12:24.475Z,991.46
2018-04-15T02:13:24.440Z,991.48
2018-04-15T02:14:24.383Z,991.45
2018-04-15T02:15:24.362Z,991.44
2018-04-15T02:16:24.358Z,991.43
2018-04-15T02:17:24.360Z,991.46
2018-04-15T02:18:24.345Z,991.40
2018-04-15T02:19:24.281Z,991.41
2018-04-15T02:20:24.280Z,991.41
2018-04-15T02:21:24.254Z,991.38
2018-04-15T02:22:24.281Z,991.38
2018-04-15T02:23:24.228Z,991.38
2018-04-15T02:24:24.202Z,991.33
2018-04-15T02:25:24.193Z,991.31
2018-04-15T02:26:24.131Z,991.28
2018-04-15T02:27:24.129Z,991.22
2018-04-15T02:28:24.138Z,991.26
2018-04-15T02:29:24.117Z,991.23
2018-04-15T02:30:24.075Z,991.22
2018-04-15T02:31:24.039Z,991.18
2018-04-15T02:32:23.996Z,991.23
2018-04-15T02:33:24.083Z,991.22
2018-04-15T02:34:24.005Z,991.20
2018-04-15T02:35:23.972Z,991.21
2018-04-15T02:36:23.948Z,991.20
2018-04-15T02:37:23.953Z,991.16
2018-04-15T02:38:23.936Z,991.15
2018-04-15T02:39:23.921Z,991.08
2018-04-15T02:40:23.856Z,991.12
2018-04-15T02:41:23.857Z,991.10
2018-04-15T02:42:23.892Z,991.06
2018-04-15T02:43:23.797Z,991.03
2018-04-15T02:44:23.778Z,991.02
2018-04-15T02:45:23.739Z,990.99
2018-04-15T02:46:23.740Z,991.01
2018-04-15T02:47:23.828Z,991.00
2018-04-15T02:48:23.687Z,991.03
2018-04-15T02:49:23.710Z,991.02
2018-04-15T02:50:23.660Z,990.99
2018-04-15T02:51:23.677Z,990.97
2018-04-15T02:52:23.667Z,990.94
2018-04-15T02:53:23.615Z,990.93
2018-04-15T02:54:23.590Z,990.95
2018-04-15T02:55:23.600Z,990.95
2018-04-15T02:56:23.634Z,990.92
2018-04-15T02:57:23.549Z,990.95
2018-04-15T02:58:23.509Z,990.92
2018-04-15T02:59:23.501Z,990.88
2018-04-15T03:00:23.475Z,990.89
2018-04-15T03:01:23.437Z,990.87
2018-04-15T03:02:23.413Z,990.82
2018-04-15T03:03:23.382Z,990.87
2018-04-15T03:04:23.389Z,990.88
2018-04-15T03:05:23.334Z,990.86
2018-04-15T03:06:23.359Z,990.84
2018-04-15T03:07:23.295Z,990.84
2018-04-15T03:08:23.358Z,990.88
2018-04-15T03:09:23.254Z,990.89
2018-04-15T03:10:23.321Z,990.93
2018-04-15T03:11:23.273Z,990.93
2018-04-15T03:12:23.229Z,990.97
2018-04-15T03:13:23.208Z,990.99
2018-04-15T03:14:23.175Z,991.05
2018-04-15T03:15:23.138Z,991.06
2018-04-15T03:16:23.128Z,991.00
2018-04-15T03:17:23.122Z,991.01
2018-04-15T03:18:23.082Z,991.02
2018-04-15T03:19:23.063Z,990.95
2018-04-15T03:20:23.048Z,990.94
2018-04-15T03:21:23.126Z,990.90
2018-04-15T03:22:23.008Z,990.90
2018-04-15T03:23:22.998Z,990.89
2018-04-15T03:24:22.979Z,990.89
2018-04-15T03:25:22.956Z,990.88
2018-04-15T03:26:22.958Z,990.88
2018-04-15T03:27:22.913Z,990.87
2018-04-15T03:28:22.882Z,990.87
2018-04-15T03:29:22.862Z,990.83
2018-04-15T03:30:22.864Z,990.86
2018-04-15T03:31:22.822Z,990.85
2018-04-15T03:32:22.817Z,990.83
2018-04-15T03:33:22.813Z,990.83
2018-04-15T03:34:22.772Z,990.83
2018-04-15T03:35:22.737Z,990.80
2018-04-15T03:36:22.726Z,990.78
2018-04-15T03:37:22.775Z,990.78
2018-04-15T03:38:22.674Z,990.79
2018-04-15T03:39:22.664Z,990.78
2018-04-15T03:40:22.651Z,990.85
2018-04-15T03:41:22.589Z,990.82
2018-04-15T03:42:22.604Z,990.79
2018-04-15T03:43:22.559Z,990.76
2018-04-15T03:44:22.582Z,990.77
2018-04-15T03:45:22.539Z,990.74
2018-04-15T03:46:22.522Z,990.77
2018-04-15T03:47:22.499Z,990.72
2018-04-15T03:48:22.496Z,990.73
2018-04-15T03:49:22.487Z,990.71
2018-04-15T03:50:22.451Z,990.68
2018-04-15T03:51:22.427Z,990.70
2018-04-15T03:52:22.404Z,990.72
2018-04-15T03:53:22.349Z,990.70
2018-04-15T03:54:22.354Z,990.76
2018-04-15T03:55:22.323Z,990.75
2018-04-15T03:56:22.326Z,990.73
2018-04-15T03:57:22.288Z,990.71
2018-04-15T03:58:22.277Z,990.69
2018-04-15T03:59:22.236Z,990.68
2018-04-15T04:00:22.243Z,990.64
2018-04-15T04:01:22.215Z,990.64
2018-04-15T04:02:22.172Z,990.66
2018-04-15T04:03:22.183Z,990.64
2018-04-15T04:04:22.146Z,990.66
2018-04-15T04:05:22.123Z,990.59
2018-04-15T04:06:22.081Z,990.56
2018-04-15T04:07:22.118Z,990.55
2018-04-15T04:08:22.039Z,990.50
2018-04-15T04:09:22.045Z,990.50
2018-04-15T04:10:22.068Z,990.49
2018-04-15T04:11:22.039Z,990.49
2018-04-15T04:12:21.982Z,990.44
2018-04-15T04:13:21.956Z,990.49
2018-04-15T04:14:21.997Z,990.51
2018-04-15T04:15:21.890Z,990.55
2018-04-15T04:16:21.869Z,990.55
2018-04-15T04:17:21.880Z,990.53
2018-04-15T04:18:21.832Z,990.50
2018-04-15T04:19:21.859Z,990.53
2018-04-15T04:20:21.824Z,990.53
2018-04-15T04:21:21.760Z,990.51
2018-04-15T04:22:21.826Z,990.53
2018-04-15T04:23:21.738Z,990.48
2018-04-15T04:24:21.754Z,990.50
2018-04-15T04:25:21.734Z,990.44
2018-04-15T04:26:21.687Z,990.49
2018-04-15T04:27:21.716Z,990.49
2018-04-15T04:28:21.660Z,990.49
2018-04-15T04:29:21.592Z,990.49
2018-04-15T04:30:21.593Z,990.48
2018-04-15T04:31:21.586Z,990.46
2018-04-15T04:32:21.532Z,990.45
2018-04-15T04:33:21.528Z,990.41
2018-04-15T04:34:21.530Z,990.37
2018-04-15T04:35:21.526Z,990.36
2018-04-15T04:36:21.477Z,990.32
2018-04-15T04:37:21.458Z,990.32
2018-04-15T04:38:21.463Z,990.29
2018-04-15T04:39:21.470Z,990.33
2018-04-15T04:40:21.372Z,990.27
2018-04-15T04:41:21.459Z,990.31
2018-04-15T04:42:21.373Z,990.27
2018-04-15T04:43:21.331Z,990.30
2018-04-15T04:44:21.300Z,990.32
2018-04-15T04:45:21.286Z,990.33
2018-04-15T04:46:21.249Z,990.30
2018-04-15T04:47:21.256Z,990.30
2018-04-15T04:48:21.223Z,990.32
2018-04-15T04:49:21.233Z,990.30
2018-04-15T04:50:21.219Z,990.29
2018-04-15T04:51:21.152Z,990.25
2018-04-15T04:52:21.188Z,990.26
2018-04-15T04:53:21.142Z,990.27
2018-04-15T04:54:21.163Z,990.25
2018-04-15T04:55:21.055Z,990.26
2018-04-15T04:56:21.105Z,990.20
2018-04-15T04:57:21.083Z,990.25
2018-04-15T04:58:21.009Z,990.20
2018-04-15T04:59:22.670Z,990.20
2018-04-15T05:00:21.000Z,990.18
2018-04-15T05:01:20.999Z,990.20
2018-04-15T05:02:20.958Z,990.20
2018-04-15T05:03:20.932Z,990.16
2018-04-15T05:04:20.900Z,990.20
2018-04-15T05:05:20.893Z,990.21
2018-04-15T05:06:20.886Z,990.23
2018-04-15T05:07:20.835Z,990.21
2018-04-15T05:08:20.884Z,990.20
2018-04-15T05:09:20.777Z,990.22
2018-04-15T05:10:20.757Z,990.21
2018-04-15T05:11:20.858Z,990.20
2018-04-15T05:12:20.791Z,990.22
2018-04-15T05:13:20.733Z,990.20
2018-04-15T05:14:20.716Z,990.19
2018-04-15T05:15:20.683Z,990.20
2018-04-15T05:16:20.656Z,990.17
2018-04-15T05:17:20.670Z,990.20
2018-04-15T05:18:20.694Z,990.18
2018-04-15T05:19:20.769Z,990.19
2018-04-15T05:20:20.578Z,990.19
2018-04-15T05:21:20.576Z,990.17
2018-04-15T05:22:20.527Z,990.13
2018-04-15T05:23:20.538Z,990.15
2018-04-15T05:24:20.548Z,990.11
2018-04-15T05:25:20.468Z,990.13
2018-04-15T05:26:20.492Z,990.15
2018-04-15T05:27:20.462Z,990.18
2018-04-15T05:28:20.582Z,990.15
2018-04-15T05:29:20.557Z,990.16
2018-04-15T05:30:21.874Z,990.12
2018-04-15T05:31:20.320Z,990.10
2018-04-15T05:32:20.383Z,990.11
2018-04-15T05:33:20.359Z,990.08
2018-04-15T05:34:20.287Z,990.09
2018-04-15T05:35:23.160Z,990.04
2018-04-15T05:36:20.285Z,990.07
2018-04-15T05:37:20.206Z,990.09
2018-04-15T05:38:20.208Z,990.10
2018-04-15T05:39:20.202Z,990.06
2018-04-15T05:40:20.647Z,990.08
2018-04-15T05:41:20.122Z,990.14
2018-04-15T05:42:20.145Z,990.11
2018-04-15T05:43:20.671Z,990.12
2018-04-15T05:44:20.125Z,990.12
2018-04-15T05:45:20.065Z,990.13
2018-04-15T05:46:20.055Z,990.10
2018-04-15T05:47:20.013Z,990.12
2018-04-15T05:48:20.005Z,990.12
2018-04-15T05:49:20.018Z,990.12
2018-04-15T05:50:19.945Z,990.12
2018-04-15T05:51:19.928Z,990.11
2018-04-15T05:52:20.675Z,990.13
2018-04-15T05:53:19.905Z,990.17
2018-04-15T05:54:19.913Z,990.13
2018-04-15T05:55:19.848Z,990.17
2018-04-15T05:56:19.832Z,990.20
2018-04-15T05:57:19.830Z,990.18
2018-04-15T05:58:19.788Z,990.17
2018-04-15T05:59:19.776Z,990.16
2018-04-15T06:00:19.770Z,990.17
2018-04-15T06:01:19.788Z,990.18
2018-04-15T06:02:19.742Z,990.19
2018-04-15T06:03:19.735Z,990.18
2018-04-15T06:04:19.693Z,990.17
2018-04-15T06:05:19.693Z,990.17
2018-04-15T06:06:19.701Z,990.18
2018-04-15T06:07:19.652Z,990.19
2018-04-15T06:08:19.600Z,990.18
2018-04-15T06:09:19.610Z,990.18
2018-04-15T06:10:19.549Z,990.19
2018-04-15T06:11:19.536Z,990.21
2018-04-15T06:12:19.546Z,990.19
2018-04-15T06:13:19.523Z,990.21
2018-04-15T06:14:19.514Z,990.25
2018-04-15T06:15:19.477Z,990.22
2018-04-15T06:16:19.487Z,990.23
2018-04-15T06:17:19.445Z,990.24
2018-04-15T06:18:19.413Z,990.23
2018-04-15T06:19:19.432Z,990.25
2018-04-15T06:20:20.191Z,990.22
2018-04-15T06:21:19.342Z,990.20
2018-04-15T06:22:19.331Z,990.21
2018-04-15T06:23:19.354Z,990.23
2018-04-15T06:24:19.300Z,990.24
2018-04-15T06:25:19.256Z,990.25
2018-04-15T06:26:19.266Z,990.28
2018-04-15T06:27:19.239Z,990.31
2018-04-15T06:28:19.187Z,990.29
2018-04-15T06:29:19.221Z,990.25
2018-04-15T06:30:19.201Z,990.25
2018-04-15T06:31:19.152Z,990.19
2018-04-15T06:32:19.151Z,990.13
2018-04-15T06:33:19.104Z,990.19
2018-04-15T06:34:19.110Z,990.22
2018-04-15T06:35:19.082Z,990.22
2018-04-15T06:36:19.095Z,990.23
2018-04-15T06:37:19.065Z,990.23
2018-04-15T06:38:19.990Z,990.21
2018-04-15T06:39:19.016Z,990.19
2018-04-15T06:40:19.056Z,990.23
2018-04-15T06:41:18.947Z,990.22
2018-04-15T06:42:18.986Z,990.20
2018-04-15T06:43:18.911Z,990.19
2018-04-15T06:44:18.979Z,990.24
2018-04-15T06:45:19.084Z,990.20
2018-04-15T06:46:18.962Z,990.18
2018-04-15T06:47:18.921Z,990.22
2018-04-15T06:48:18.847Z,990.23
2018-04-15T06:49:18.842Z,990.14
2018-04-15T06:50:18.923Z,990.19
2018-04-15T06:51:18.791Z,990.21
2018-04-15T06:52:18.849Z,990.17
2018-04-15T06:53:18.716Z,990.19
2018-04-15T06:54:18.795Z,990.19
2018-04-15T06:55:18.709Z,990.11
2018-04-15T06:56:18.736Z,990.13
2018-04-15T06:57:18.684Z,990.12
2018-04-15T06:58:18.664Z,990.10
2018-04-15T06:59:18.666Z,990.09
2018-04-15T07:00:18.626Z,990.07
2018-04-15T07:01:18.596Z,990.07
2018-04-15T07:02:18.596Z,990.03
2018-04-15T07:03:18.542Z,990.00
2018-04-15T07:04:18.550Z,990.00
2018-04-15T07:05:18.573Z,990.03
2018-04-15T07:06:18.494Z,990.00
2018-04-15T07:07:18.476Z,989.99
2018-04-15T07:08:18.485Z,989.98
2018-04-15T07:09:18.486Z,990.05
2018-04-15T07:10:18.448Z,989.97
2018-04-15T07:11:18.405Z,990.03
2018-04-15T07:12:18.408Z,990.03
2018-04-15T07:13:18.397Z,990.03
2018-04-15T07:14:18.359Z,990.01
2018-04-15T07:15:18.334Z,990.04
2018-04-15T07:16:18.345Z,990.04
2018-04-15T07:17:18.316Z,990.10
2018-04-15T07:18:18.254Z,990.12
2018-04-15T07:19:18.259Z,990.15
2018-04-15T07:20:18.251Z,990.15
2018-04-15T07:21:19.103Z,990.11
2018-04-15T07:22:18.194Z,990.18
2018-04-15T07:23:18.190Z,990.14
2018-04-15T07:24:18.148Z,990.17
2018-04-15T07:25:18.150Z,990.16
2018-04-15T07:26:18.112Z,990.17
2018-04-15T07:27:18.106Z,990.18
2018-04-15T07:28:18.106Z,990.19
2018-04-15T07:29:18.099Z,990.21
2018-04-15T07:30:18.057Z,990.23
2018-04-15T07:31:18.044Z,990.21
2018-04-15T07:32:18.044Z,990.27
2018-04-15T07:33:17.994Z,990.25
2018-04-15T07:34:17.990Z,990.28
2018-04-15T07:35:18.017Z,990.28
2018-04-15T07:36:17.985Z,990.23
2018-04-15T07:37:17.939Z,990.32
2018-04-15T07:38:17.904Z,990.34
2018-04-15T07:39:17.943Z,990.30
2018-04-15T07:40:17.871Z,990.29
2018-04-15T07:41:17.832Z,990.30
2018-04-15T07:42:17.825Z,990.34
2018-04-15T07:43:17.866Z,990.33
2018-04-15T07:44:17.813Z,990.32
2018-04-15T07:45:17.810Z,990.32
2018-04-15T07:46:17.785Z,990.29
2018-04-15T07:47:17.775Z,990.25
2018-04-15T07:48:17.749Z,990.27
2018-04-15T07:49:18.126Z,990.24
2018-04-15T07:50:17.672Z,990.25
2018-04-15T07:51:17.703Z,990.29
2018-04-15T07:52:17.688Z,990.23
2018-04-15T07:53:17.699Z,990.25
2018-04-15T07:54:17.586Z,990.23
2018-04-15T07:55:17.603Z,990.21
2018-04-15T07:56:17.634Z,990.23
2018-04-15T07:57:17.576Z,990.24
2018-04-15T07:58:17.531Z,990.24
2018-04-15T07:59:17.523Z,990.23
2018-04-15T08:00:17.588Z,990.24
2018-04-15T08:01:17.501Z,990.23
2018-04-15T08:02:17.729Z,990.21
2018-04-15T08:03:17.482Z,990.18
2018-04-15T08:04:17.490Z,990.21
2018-04-15T08:05:17.401Z,990.20
2018-04-15T08:06:17.416Z,990.11
2018-04-15T08:07:17.761Z,990.15
2018-04-15T08:08:17.474Z,990.18
2018-04-15T08:09:17.460Z,990.14
2018-04-15T08:10:17.391Z,990.14
2018-04-15T08:11:17.364Z,990.10
2018-04-15T08:12:17.288Z,990.11
2018-04-15T08:13:17.305Z,990.07
2018-04-15T08:14:17.438Z,990.11
2018-04-15T08:15:17.319Z,990.12
2018-04-15T08:16:17.235Z,990.11
2018-04-15T08:17:17.236Z,990.04
2018-04-15T08:18:17.207Z,990.09
2018-04-15T08:19:17.198Z,990.06
2018-04-15T08:20:17.219Z,990.05
2018-04-15T08:21:17.365Z,990.04
2018-04-15T08:22:17.101Z,990.01
2018-04-15T08:23:17.159Z,990.01
2018-04-15T08:24:17.137Z,989.98
2018-04-15T08:25:17.221Z,989.97
2018-04-15T08:26:17.049Z,989.95
2018-04-15T08:27:17.027Z,989.93
2018-04-15T08:28:16.999Z,989.94
2018-04-15T08:29:16.977Z,989.94
2018-04-15T08:30:17.015Z,989.90
2018-04-15T08:31:16.980Z,989.90
2018-04-15T08:32:17.053Z,989.90
2018-04-15T08:33:17.011Z,989.91
2018-04-15T08:34:16.986Z,989.87
2018-04-15T08:35:16.934Z,989.89
2018-04-15T08:36:16.908Z,989.90
2018-04-15T08:37:16.861Z,989.90
2018-04-15T08:38:16.817Z,989.94
2018-04-15T08:39:16.873Z,990.01
2018-04-15T08:40:16.826Z,990.00
2018-04-15T08:41:16.828Z,990.00
2018-04-15T08:42:16.805Z,990.11
2018-04-15T08:43:16.787Z,990.18
2018-04-15T08:44:16.799Z,989.98
2018-04-15T08:45:16.724Z,990.01
2018-04-15T08:46:16.707Z,990.07
2018-04-15T08:47:16.662Z,990.03
2018-04-15T08:48:16.667Z,989.88
2018-04-15T08:49:16.638Z,989.89
2018-04-15T08:50:16.666Z,989.85
2018-04-15T08:51:16.631Z,989.89
2018-04-15T08:52:16.593Z,989.89
2018-04-15T08:53:16.609Z,989.88
2018-04-15T08:54:16.616Z,989.88
2018-04-15T08:55:16.564Z,989.86
2018-04-15T08:56:16.620Z,989.83
2018-04-15T08:57:16.557Z,989.76
2018-04-15T08:58:16.509Z,989.72
2018-04-15T08:59:16.511Z,989.70
2018-04-15T09:00:16.512Z,989.67
2018-04-15T09:01:16.533Z,989.66
2018-04-15T09:02:16.512Z,989.73
2018-04-15T09:03:16.429Z,989.74
2018-04-15T09:04:16.470Z,989.74
2018-04-15T09:05:16.433Z,989.78
2018-04-15T09:06:16.412Z,989.68
2018-04-15T09:07:16.401Z,989.72
2018-04-15T09:08:16.386Z,989.70
2018-04-15T09:09:16.410Z,989.71
2018-04-15T09:10:16.365Z,989.71
2018-04-15T09:11:16.431Z,989.79
2018-04-15T09:12:18.265Z,989.99
2018-04-15T09:13:16.307Z,989.55
2018-04-15T09:14:16.351Z,989.74
2018-04-15T09:15:16.316Z,989.76
2018-04-15T09:16:16.271Z,989.70
2018-04-15T09:17:16.363Z,989.84
2018-04-15T09:18:16.402Z,989.49
2018-04-15T09:19:16.262Z,989.86
2018-04-15T09:20:16.262Z,989.70
2018-04-15T09:21:16.227Z,989.80
2018-04-15T09:22:16.234Z,989.62
2018-04-15T09:23:16.249Z,989.45
2018-04-15T09:24:16.197Z,989.55
2018-04-15T09:25:16.167Z,989.72
2018-04-15T09:26:16.221Z,989.55
2018-04-15T09:27:16.186Z,989.40
2018-04-15T09:28:16.184Z,989.35
2018-04-15T09:29:16.141Z,989.35
2018-04-15T09:30:16.125Z,989.88
2018-04-15T09:31:16.124Z,989.89
2018-04-15T09:32:16.129Z,989.64
2018-04-15T09:33:16.145Z,989.87
2018-04-15T09:34:16.113Z,989.82
2018-04-15T09:35:16.106Z,989.78
2018-04-15T09:36:16.109Z,989.87
2018-04-15T09:37:16.094Z,989.81
2018-04-15T09:38:16.098Z,989.27
2018-04-15T09:39:16.087Z,989.24
2018-04-15T09:40:16.042Z,989.17
2018-04-15T09:41:16.071Z,989.74
2018-04-15T09:42:16.044Z,989.84
2018-04-15T09:43:16.061Z,989.62
2018-04-15T09:44:16.026Z,989.15
2018-04-15T09:45:16.020Z,989.47
2018-04-15T09:46:16.020Z,989.25
2018-04-15T09:47:16.009Z,989.83
2018-04-15T09:48:16.030Z,989.25
2018-04-15T09:49:16.019Z,989.81
2018-04-15T09:50:16.009Z,989.78
2018-04-15T09:51:15.978Z,989.74
2018-04-15T09:52:16.011Z,989.80
2018-04-15T09:53:16.013Z,989.74
2018-04-15T09:54:15.972Z,989.65
2018-04-15T09:55:15.967Z,989.57
2018-04-15T09:56:15.956Z,989.50
2018-04-15T09:57:15.957Z,989.70
2018-04-15T09:58:16.001Z,989.66
2018-04-15T09:59:16.021Z,989.50
2018-04-15T10:00:15.950Z,989.66
2018-04-15T10:01:15.940Z,989.61
2018-04-15T10:02:15.953Z,989.61
2018-04-15T10:03:15.961Z,989.63
2018-04-15T10:04:15.934Z,989.57
2018-04-15T10:05:15.979Z,989.56
2018-04-15T10:06:16.095Z,989.57
2018-04-15T10:07:15.975Z,989.54
2018-04-15T10:08:15.944Z,989.50
2018-04-15T10:09:15.956Z,989.53
2018-04-15T10:10:15.941Z,989.51
2018-04-15T10:11:15.991Z,989.44
2018-04-15T10:12:15.987Z,989.48
2018-04-15T10:13:15.945Z,989.51
2018-04-15T10:14:15.930Z,989.51
2018-04-15T10:15:15.942Z,989.49
2018-04-15T10:16:15.953Z,989.44
2018-04-15T10:17:15.929Z,989.42
2018-04-15T10:18:15.935Z,989.39
2018-04-15T10:19:15.942Z,989.41
2018-04-15T10:20:15.967Z,989.41
2018-04-15T10:21:15.966Z,989.39
2018-04-15T10:22:15.954Z,989.41
2018-04-15T10:23:15.955Z,989.40
2018-04-15T10:24:15.987Z,989.40
2018-04-15T10:25:15.928Z,989.43
2018-04-15T10:26:15.922Z,989.44
2018-04-15T10:27:15.925Z,989.42
2018-04-15T10:28:15.933Z,989.44
2018-04-15T10:29:15.927Z,989.39
2018-04-15T10:30:15.949Z,989.40
2018-04-15T10:31:15.982Z,989.43
2018-04-15T10:32:15.934Z,989.45
2018-04-15T10:33:15.953Z,989.41
2018-04-15T10:34:16.257Z,989.39
2018-04-15T10:35:15.966Z,989.41
2018-04-15T10:36:15.975Z,989.39
2018-04-15T10:37:15.942Z,989.39
2018-04-15T10:38:15.951Z,989.37
2018-04-15T10:39:15.979Z,989.40
2018-04-15T10:40:15.970Z,989.43
2018-04-15T10:41:16.013Z,989.43
2018-04-15T10:42:15.956Z,989.44
2018-04-15T10:43:15.984Z,989.47
2018-04-15T10:44:15.946Z,989.46
2018-04-15T10:45:15.964Z,989.52
2018-04-15T10:46:15.973Z,989.50
2018-04-15T10:47:15.981Z,989.52
2018-04-15T10:48:15.951Z,989.52
2018-04-15T10:49:15.971Z,989.52
2018-04-15T10:50:15.939Z,989.54
2018-04-15T10:51:15.945Z,989.65
2018-04-15T10:52:15.969Z,989.79
2018-04-15T10:53:16.269Z,989.83
2018-04-15T10:54:15.954Z,989.80
2018-04-15T10:55:15.961Z,989.77
2018-04-15T10:56:15.970Z,989.77
2018-04-15T10:57:16.011Z,989.73
2018-04-15T10:58:15.991Z,989.75
2018-04-15T10:59:15.977Z,989.74
2018-04-15T11:00:15.966Z,989.71
2018-04-15T11:01:16.061Z,989.72
2018-04-15T11:02:16.215Z,989.69
2018-04-15T11:03:16.011Z,989.65
2018-04-15T11:04:15.996Z,989.60
2018-04-15T11:05:15.986Z,989.65
2018-04-15T11:06:15.984Z,989.66
2018-04-15T11:07:15.991Z,989.58
2018-04-15T11:08:15.994Z,989.65
2018-04-15T11:09:16.004Z,989.72
2018-04-15T11:10:16.196Z,989.62
2018-04-15T11:11:16.013Z,989.59
2018-04-15T11:12:15.998Z,989.63
2018-04-15T11:13:16.044Z,989.61
2018-04-15T11:14:15.994Z,989.55
2018-04-15T11:15:16.076Z,989.53
2018-04-15T11:16:16.008Z,989.53
2018-04-15T11:17:16.032Z,989.49
2018-04-15T11:18:16.017Z,989.45
2018-04-15T11:19:16.011Z,989.54
2018-04-15T11:20:16.030Z,989.47
2018-04-15T11:21:16.025Z,989.48
2018-04-15T11:22:16.003Z,989.42
2018-04-15T11:23:16.052Z,989.39
2018-04-15T11:24:16.039Z,989.41
2018-04-15T11:25:16.030Z,989.34
2018-04-15T11:26:16.038Z,989.33
2018-04-15T11:27:16.014Z,989.26
2018-04-15T11:28:16.059Z,989.30
2018-04-15T11:29:16.008Z,989.36
2018-04-15T11:30:16.046Z,989.30
2018-04-15T11:31:16.031Z,989.22
2018-04-15T11:32:16.043Z,989.21
2018-04-15T11:33:16.076Z,989.26
2018-04-15T11:34:16.339Z,989.19
2018-04-15T11:35:16.054Z,989.19
2018-04-15T11:36:16.153Z,989.16
2018-04-15T11:37:16.069Z,989.17
2018-04-15T11:38:16.026Z,989.15
2018-04-15T11:39:16.046Z,989.12
2018-04-15T11:40:16.048Z,989.11
2018-04-15T11:41:16.082Z,989.08
2018-04-15T11:42:16.058Z,989.08
2018-04-15T11:43:16.096Z,989.11
2018-04-15T11:44:16.099Z,989.07
2018-04-15T11:45:16.133Z,989.04
2018-04-15T11:46:16.118Z,989.05
2018-04-15T11:47:16.065Z,989.05
2018-04-15T11:48:16.084Z,989.06
2018-04-15T11:49:16.109Z,989.07
2018-04-15T11:50:16.075Z,989.00
2018-04-15T11:51:16.068Z,988.98
2018-04-15T11:52:16.054Z,988.99
2018-04-15T11:53:16.126Z,988.96
2018-04-15T11:54:16.078Z,988.97
2018-04-15T11:55:16.096Z,988.98
2018-04-15T11:56:16.091Z,988.95
2018-04-15T11:57:16.059Z,988.95
2018-04-15T11:58:16.108Z,988.90
2018-04-15T11:59:16.118Z,988.88
2018-04-15T12:00:16.146Z,988.86
2018-04-15T12:01:16.083Z,988.85
2018-04-15T12:02:16.385Z,988.87
2018-04-15T12:03:16.081Z,988.87
2018-04-15T12:04:16.186Z,988.87
2018-04-15T12:05:16.088Z,988.79
2018-04-15T12:06:16.085Z,988.83
2018-04-15T12:07:16.087Z,988.79
2018-04-15T12:08:16.101Z,988.79
2018-04-15T12:09:16.264Z,988.75
2018-04-15T12:10:16.146Z,988.74
2018-04-15T12:11:16.065Z,988.75
2018-04-15T12:12:16.081Z,988.83
2018-04-15T12:13:16.086Z,988.51
2018-04-15T12:14:16.385Z,988.90
2018-04-15T12:15:16.082Z,988.45
2018-04-15T12:16:16.104Z,988.85
2018-04-15T12:17:16.109Z,988.85
2018-04-15T12:18:16.082Z,988.84
2018-04-15T12:19:16.085Z,988.88
2018-04-15T12:20:16.115Z,988.84
2018-04-15T12:21:16.108Z,988.86
2018-04-15T12:22:16.090Z,988.87
2018-04-15T12:23:16.105Z,988.75
2018-04-15T12:24:16.111Z,988.80
2018-04-15T12:25:16.071Z,988.84
2018-04-15T12:26:16.098Z,988.84
2018-04-15T12:27:16.082Z,988.83
2018-04-15T12:28:16.078Z,988.85